Time;durP1;ratioP1;P1;durP2;ratioP2;P2;SDS_P1;SDS_P2;PMS_P1;PMS_P2;Temp;Humidity;BMP_temperature;BMP_pressure;BME280_temperature;BME280_humidity;BME280_pressure;Samples;Min_cycle;Max_cycle;Signal;HPM_P1;HPM_P2
2022/01/17 00:02:22;;;;;;;24.80;12.50;;;5.70;99.90;;;;;;4949952;29;20272;-94
2022/01/17 00:04:48;;;;;;;29.30;13.10;;;5.70;99.90;;;;;;4955652;28;20178;-95
2022/01/17 00:07:14;;;;;;;21.17;12.30;;;5.70;99.90;;;;;;4955549;28;20228;-94
2022/01/17 00:09:40;;;;;;;21.53;12.07;;;5.80;99.90;;;;;;4957882;28;20178;-94
2022/01/17 00:12:06;;;;;;;28.83;12.47;;;5.90;99.90;;;;;;4959157;28;20189;-94
2022/01/17 00:14:38;;;;;;;19.83;10.73;;;6.00;99.90;;;;;;4958985;28;20181;-94
2022/01/17 00:17:24;;;;;;;21.60;11.20;;;6.00;99.90;;;;;;4958582;28;20174;-94
2022/01/17 00:19:54;;;;;;;22.47;11.13;;;5.90;99.90;;;;;;4959350;28;20268;-95
2022/01/17 00:22:21;;;;;;;23.20;10.43;;;6.10;99.90;;;;;;4958956;28;20213;-95
2022/01/17 00:24:48;;;;;;;21.50;10.80;;;6.20;99.90;;;;;;4959221;28;20223;-95
2022/01/17 00:27:14;;;;;;;24.77;10.50;;;6.10;99.90;;;;;;4959116;28;20189;-95
2022/01/17 00:29:40;;;;;;;19.43;10.97;;;6.10;99.90;;;;;;4958830;28;20196;-94
2022/01/17 00:32:07;;;;;;;21.90;11.30;;;6.20;99.90;;;;;;4958810;28;20193;-95
2022/01/17 00:34:32;;;;;;;15.73;9.47;;;6.10;99.90;;;;;;4959067;28;20192;-94
2022/01/17 00:36:58;;;;;;;17.93;10.17;;;6.10;99.90;;;;;;4958557;28;20346;-94
2022/01/17 00:39:24;;;;;;;21.37;9.63;;;6.20;99.90;;;;;;4959289;28;20271;-95
2022/01/17 00:41:50;;;;;;;16.90;9.80;;;6.20;99.90;;;;;;4958283;28;20619;-95
2022/01/17 00:44:21;;;;;;;16.13;9.00;;;6.10;99.90;;;;;;4958383;28;20620;-95
2022/01/17 00:46:48;;;;;;;16.87;8.40;;;6.10;99.90;;;;;;4958256;28;20291;-95
2022/01/17 00:49:13;;;;;;;16.40;7.47;;;6.20;99.90;;;;;;4958430;28;20189;-94
2022/01/17 00:51:39;;;;;;;14.60;7.20;;;6.10;99.90;;;;;;4958427;28;20186;-96
2022/01/17 00:54:05;;;;;;;13.87;7.00;;;6.10;99.90;;;;;;4958304;28;20212;-95
2022/01/17 00:56:32;;;;;;;14.37;6.50;;;6.20;99.90;;;;;;4958230;28;20209;-95
2022/01/17 00:58:57;;;;;;;14.20;6.63;;;6.20;99.90;;;;;;4958327;28;20182;-96
2022/01/17 01:01:23;;;;;;;11.93;5.73;;;6.20;99.90;;;;;;4958242;28;20284;-95
2022/01/17 01:03:49;;;;;;;10.23;4.67;;;6.30;99.90;;;;;;4958116;28;20263;-95
2022/01/17 01:06:15;;;;;;;11.43;4.67;;;6.20;99.90;;;;;;4957895;28;20597;-94
2022/01/17 01:08:40;;;;;;;12.30;3.83;;;6.30;99.90;;;;;;4958448;28;20185;-94
2022/01/17 01:11:07;;;;;;;9.67;2.83;;;6.30;99.90;;;;;;4958389;28;20177;-95
2022/01/17 01:13:33;;;;;;;7.20;2.27;;;6.30;99.90;;;;;;4958429;28;20181;-93
2022/01/17 01:29:22;;;;;;;7.60;2.60;;;6.10;99.90;;;;;;4959442;29;20177;-95
2022/01/17 01:31:55;;;;;;;10.23;2.73;;;6.00;99.90;;;;;;4958282;28;20235;-95
2022/01/17 01:34:31;;;;;;;9.30;1.80;;;6.00;99.90;;;;;;4957657;28;20173;-95
2022/01/17 01:36:57;;;;;;;8.07;1.87;;;6.00;99.90;;;;;;4957847;28;20264;-94
2022/01/17 01:39:24;;;;;;;5.07;1.40;;;5.90;99.90;;;;;;4957541;28;20205;-94
2022/01/17 01:41:51;;;;;;;8.10;1.80;;;5.90;99.90;;;;;;4957381;28;20280;-94
2022/01/17 01:44:23;;;;;;;8.70;1.60;;;5.90;99.90;;;;;;4957412;28;20177;-94
2022/01/17 01:46:51;;;;;;;5.27;1.40;;;5.90;99.90;;;;;;4956911;28;20291;-94
2022/01/17 01:49:17;;;;;;;5.13;1.30;;;6.00;99.90;;;;;;4956109;28;20185;-95
2022/01/17 01:51:44;;;;;;;6.23;1.60;;;6.00;99.90;;;;;;4957421;28;20299;-94
2022/01/17 01:54:10;;;;;;;11.20;1.83;;;6.00;99.90;;;;;;4957698;28;20177;-95
2022/01/17 01:56:38;;;;;;;5.47;1.17;;;5.90;99.90;;;;;;4956935;28;20188;-95
2022/01/17 01:59:05;;;;;;;12.07;2.43;;;6.00;99.90;;;;;;4957139;28;20181;-94
2022/01/17 02:01:31;;;;;;;8.97;1.53;;;6.00;99.90;;;;;;4957143;28;20189;-95
2022/01/17 02:03:57;;;;;;;8.77;1.53;;;6.10;99.90;;;;;;4956863;28;20235;-94
2022/01/17 02:06:23;;;;;;;7.87;1.40;;;6.10;99.90;;;;;;4957153;28;20185;-94
2022/01/17 02:08:49;;;;;;;7.57;1.80;;;6.10;99.90;;;;;;4957069;28;20190;-94
2022/01/17 02:11:15;;;;;;;8.60;1.40;;;6.10;99.90;;;;;;4956789;28;20173;-95
2022/01/17 02:13:41;;;;;;;7.20;1.83;;;6.00;99.90;;;;;;4956892;28;20177;-95
2022/01/17 02:16:10;;;;;;;9.00;2.07;;;5.90;99.90;;;;;;4956268;28;20196;-95
2022/01/17 02:18:37;;;;;;;7.47;1.77;;;6.00;99.90;;;;;;4956773;28;20177;-96
2022/01/17 02:23:44;;;;;;;11.43;1.90;;;5.90;99.90;;;;;;4958517;28;20209;-95
2022/01/17 02:26:11;;;;;;;9.83;1.47;;;5.80;99.90;;;;;;4956872;28;20264;-94
2022/01/17 02:28:39;;;;;;;9.03;1.87;;;5.80;99.90;;;;;;4957165;28;20177;-95
2022/01/17 02:31:06;;;;;;;13.87;2.63;;;5.90;99.90;;;;;;4957230;28;20189;-93
2022/01/17 02:33:36;;;;;;;11.50;2.00;;;5.90;99.90;;;;;;4956183;28;20219;-94
2022/01/17 02:36:02;;;;;;;17.33;2.70;;;5.90;99.90;;;;;;4956674;28;20232;-94
2022/01/17 02:38:28;;;;;;;17.17;3.30;;;5.90;99.90;;;;;;4956435;28;20196;-93
2022/01/17 02:40:54;;;;;;;8.77;1.90;;;5.80;99.90;;;;;;4956981;28;20173;-94
2022/01/17 02:43:21;;;;;;;10.00;2.03;;;5.80;99.90;;;;;;4956616;28;20251;-94
2022/01/17 02:48:18;;;;;;;15.77;2.27;;;5.80;99.90;;;;;;4957669;28;20211;-94
2022/01/17 02:50:44;;;;;;;13.33;2.23;;;5.80;99.90;;;;;;4957006;28;20604;-94
2022/01/17 02:53:12;;;;;;;9.93;2.20;;;5.90;99.90;;;;;;4956294;28;20187;-94
2022/01/17 02:55:39;;;;;;;13.27;2.10;;;5.90;99.90;;;;;;4956409;28;20272;-95
2022/01/17 02:58:06;;;;;;;8.97;2.07;;;5.90;99.90;;;;;;4956682;28;20248;-95
2022/01/17 03:00:32;;;;;;;9.27;1.57;;;5.80;99.90;;;;;;4956201;28;20184;-95
2022/01/17 03:02:58;;;;;;;8.50;1.90;;;5.90;99.90;;;;;;4956005;28;20271;-95
2022/01/17 03:05:23;;;;;;;13.27;2.03;;;5.80;99.90;;;;;;4956186;28;20181;-95
2022/01/17 03:07:50;;;;;;;15.27;2.07;;;5.80;99.90;;;;;;4955971;28;20181;-93
2022/01/17 03:10:39;;;;;;;11.60;1.60;;;5.70;99.90;;;;;;4957490;28;20604;-95
2022/01/17 03:13:33;;;;;;;8.47;1.90;;;5.70;99.90;;;;;;4955994;28;20181;-95
2022/01/17 03:16:10;;;;;;;9.53;1.70;;;5.90;99.90;;;;;;4955410;29;20528;-93
2022/01/17 03:18:39;;;;;;;10.80;1.90;;;5.80;99.90;;;;;;4955974;28;20185;-95
2022/01/17 03:21:06;;;;;;;12.00;2.10;;;5.70;99.90;;;;;;4956498;28;20197;-94
2022/01/17 03:23:32;;;;;;;14.47;2.50;;;5.70;99.90;;;;;;4956002;28;20213;-94
2022/01/17 03:25:58;;;;;;;12.00;1.90;;;5.70;99.90;;;;;;4956136;28;20268;-95
2022/01/17 03:28:25;;;;;;;9.30;1.97;;;5.70;99.90;;;;;;4956033;28;20244;-95
2022/01/17 03:30:52;;;;;;;14.20;2.47;;;5.60;99.90;;;;;;4956361;28;20213;-94
2022/01/17 03:33:18;;;;;;;13.10;2.37;;;5.70;99.90;;;;;;4955967;28;20195;-94
2022/01/17 03:35:44;;;;;;;14.33;2.77;;;5.70;99.90;;;;;;4956099;28;20181;-95
2022/01/17 03:38:14;;;;;;;15.07;2.07;;;5.70;99.90;;;;;;4956285;28;20191;-94
2022/01/17 03:40:41;;;;;;;13.50;2.73;;;5.70;99.90;;;;;;4956763;28;20185;-95
2022/01/17 03:43:08;;;;;;;13.50;2.10;;;5.60;99.90;;;;;;4955691;28;20208;-94
2022/01/17 03:45:34;;;;;;;12.97;2.20;;;5.70;99.90;;;;;;4959853;28;20425;-95
2022/01/17 03:48:00;;;;;;;13.70;2.10;;;5.70;99.90;;;;;;4960111;28;20286;-94
2022/01/17 03:50:27;;;;;;;13.13;2.40;;;5.70;99.90;;;;;;4959406;29;20181;-94
2022/01/17 03:52:52;;;;;;;14.17;2.33;;;5.70;99.90;;;;;;4959339;28;20189;-94
2022/01/17 03:55:21;;;;;;;8.90;1.90;;;5.70;99.90;;;;;;4959412;28;20628;-94
2022/01/17 03:57:47;;;;;;;8.23;1.33;;;5.70;99.90;;;;;;4959157;28;20290;-95
2022/01/17 04:00:18;;;;;;;11.70;2.13;;;5.70;99.90;;;;;;4959380;28;20185;-94
2022/01/17 04:02:44;;;;;;;13.03;2.47;;;5.90;99.90;;;;;;4959172;28;20245;-94
2022/01/17 04:05:09;;;;;;;17.37;2.83;;;5.80;99.90;;;;;;4959943;28;20510;-93
2022/01/17 04:07:35;;;;;;;10.50;1.73;;;5.80;99.90;;;;;;4959542;28;20617;-93
2022/01/17 04:10:02;;;;;;;17.53;2.23;;;5.80;99.90;;;;;;4959190;28;20185;-94
2022/01/17 04:12:27;;;;;;;19.27;2.33;;;5.70;99.90;;;;;;4959876;28;20185;-94
2022/01/17 04:14:55;;;;;;;9.90;1.97;;;5.80;99.90;;;;;;4959473;28;20185;-95
2022/01/17 04:17:27;;;;;;;16.83;2.60;;;5.70;99.90;;;;;;4958665;28;20176;-94
2022/01/17 04:20:02;;;;;;;11.03;2.10;;;5.70;99.90;;;;;;4959316;28;20184;-94
2022/01/17 04:22:28;;;;;;;12.77;2.40;;;5.70;99.90;;;;;;4959470;28;20543;-94
2022/01/17 04:24:54;;;;;;;10.73;1.67;;;5.70;99.90;;;;;;4959028;28;20185;-95
2022/01/17 04:27:19;;;;;;;15.07;2.40;;;5.60;99.90;;;;;;4959522;28;20192;-95
2022/01/17 04:29:45;;;;;;;9.90;2.00;;;5.60;99.90;;;;;;4959375;28;20189;-95
2022/01/17 04:32:10;;;;;;;9.40;1.80;;;5.70;99.90;;;;;;4964405;28;20192;-96
2022/01/17 04:34:36;;;;;;;12.73;2.57;;;5.80;99.90;;;;;;4958745;29;20275;-96
2022/01/17 04:37:02;;;;;;;7.97;1.63;;;5.80;99.90;;;;;;4958760;28;20185;-93
2022/01/17 04:39:28;;;;;;;17.40;2.97;;;5.80;99.90;;;;;;4959340;28;20189;-94
2022/01/17 04:41:56;;;;;;;10.60;2.30;;;5.80;99.90;;;;;;4959033;28;20284;-94
2022/01/17 04:47:06;;;;;;;14.00;2.00;;;5.70;99.90;;;;;;4959916;29;20193;-94
2022/01/17 04:49:31;;;;;;;8.90;1.93;;;5.80;99.90;;;;;;4958488;28;20185;-94
2022/01/17 04:51:57;;;;;;;16.03;2.43;;;5.70;99.90;;;;;;4958707;28;20286;-95
2022/01/17 04:54:40;;;;;;;18.23;3.30;;;5.70;99.90;;;;;;4958636;28;20185;-94
2022/01/17 04:57:07;;;;;;;12.77;2.73;;;5.70;99.90;;;;;;4957873;28;20248;-94
2022/01/17 04:59:33;;;;;;;14.23;2.47;;;5.60;99.90;;;;;;4977429;28;20288;-95
2022/01/17 05:01:58;;;;;;;14.57;1.80;;;5.60;99.90;;;;;;4966006;28;20240;-94
2022/01/17 05:04:24;;;;;;;12.97;2.40;;;5.60;99.90;;;;;;4958164;28;20185;-94
2022/01/17 05:06:50;;;;;;;13.27;1.87;;;5.60;99.90;;;;;;4957869;28;20193;-94
2022/01/17 05:09:15;;;;;;;12.50;2.43;;;5.70;99.90;;;;;;4957962;28;20243;-94
2022/01/17 05:11:42;;;;;;;12.10;2.10;;;5.60;99.90;;;;;;4958165;28;20188;-95
2022/01/17 05:14:08;;;;;;;15.70;2.53;;;5.60;99.90;;;;;;4958258;28;20721;-95
2022/01/17 05:16:39;;;;;;;15.03;2.57;;;5.70;99.90;;;;;;4957822;28;20181;-94
2022/01/17 05:21:50;;;;;;;8.57;1.77;;;5.60;99.90;;;;;;4959481;29;20169;-95
2022/01/17 05:24:15;;;;;;;13.20;2.23;;;5.70;99.90;;;;;;4957887;28;20225;-95
2022/01/17 05:26:41;;;;;;;16.57;2.60;;;5.70;99.90;;;;;;4957782;28;20217;-94
2022/01/17 05:29:07;;;;;;;19.73;2.57;;;5.70;99.90;;;;;;4957793;28;20189;-95
2022/01/17 05:31:33;;;;;;;10.47;2.00;;;5.70;99.90;;;;;;4957306;28;20280;-93
2022/01/17 05:33:58;;;;;;;14.80;2.50;;;5.70;99.90;;;;;;4957539;28;20196;-93
2022/01/17 05:36:24;;;;;;;15.90;2.77;;;5.60;99.90;;;;;;4957897;28;20608;-93
2022/01/17 05:38:52;;;;;;;13.47;2.10;;;5.60;99.90;;;;;;4957561;28;20193;-94
2022/01/17 05:41:18;;;;;;;18.73;3.03;;;5.60;99.90;;;;;;4957893;28;20232;-93
2022/01/17 05:43:45;;;;;;;12.93;1.97;;;5.70;99.90;;;;;;4957490;28;20213;-95
2022/01/17 05:46:10;;;;;;;16.33;2.57;;;5.70;99.90;;;;;;4957328;28;20233;-93
2022/01/17 05:48:36;;;;;;;10.20;2.33;;;5.80;99.90;;;;;;4957784;28;20185;-93
2022/01/17 05:51:02;;;;;;;13.63;2.47;;;5.80;99.90;;;;;;4957612;28;20181;-94
2022/01/17 05:53:27;;;;;;;15.70;2.43;;;5.80;99.90;;;;;;4957478;28;20177;-94
2022/01/17 05:55:53;;;;;;;10.40;3.07;;;5.80;99.90;;;;;;4957661;28;20271;-94
2022/01/17 05:58:19;;;;;;;12.50;2.00;;;5.80;99.90;;;;;;4957811;29;20519;-94
2022/01/17 06:00:45;;;;;;;15.73;2.27;;;5.80;99.90;;;;;;4957945;28;20185;-96
2022/01/17 06:03:10;;;;;;;14.07;2.83;;;5.80;99.90;;;;;;4957102;28;20213;-95
2022/01/17 06:05:36;;;;;;;14.93;2.33;;;5.80;99.90;;;;;;4957311;28;20181;-93
2022/01/17 06:08:02;;;;;;;13.60;2.63;;;5.80;99.90;;;;;;4957708;28;20616;-94
2022/01/17 06:10:27;;;;;;;12.50;2.23;;;5.80;99.90;;;;;;4957303;28;20182;-94
2022/01/17 06:12:55;;;;;;;15.03;2.47;;;5.70;99.90;;;;;;4957577;28;20186;-95
2022/01/17 06:15:21;;;;;;;15.57;2.50;;;5.70;99.90;;;;;;4957224;28;20577;-95
2022/01/17 06:17:47;;;;;;;18.77;2.43;;;5.70;99.90;;;;;;4956825;28;20189;-96
2022/01/17 06:20:13;;;;;;;10.97;2.03;;;5.70;99.90;;;;;;4956934;28;20268;-95
2022/01/17 06:22:39;;;;;;;12.67;2.27;;;5.80;99.90;;;;;;4957664;28;20209;-94
2022/01/17 06:25:05;;;;;;;18.33;2.23;;;5.80;99.90;;;;;;4956670;28;20188;-94
2022/01/17 06:27:31;;;;;;;11.83;2.20;;;5.80;99.90;;;;;;4956952;28;20182;-94
2022/01/17 06:29:57;;;;;;;12.93;2.23;;;5.80;99.90;;;;;;4956695;28;20508;-94
2022/01/17 06:32:23;;;;;;;13.87;1.87;;;5.80;99.90;;;;;;4956913;28;20193;-94
2022/01/17 06:34:49;;;;;;;12.90;2.40;;;5.70;99.90;;;;;;4957335;28;20189;-95
2022/01/17 06:37:15;;;;;;;12.80;2.30;;;5.70;99.90;;;;;;4956817;28;20205;-94
2022/01/17 06:39:41;;;;;;;16.63;2.37;;;5.80;99.90;;;;;;4957100;28;20185;-93
2022/01/17 06:42:08;;;;;;;10.47;2.27;;;5.80;99.90;;;;;;4956795;28;20531;-95
2022/01/17 06:44:33;;;;;;;11.07;2.63;;;5.70;99.90;;;;;;4956428;28;20216;-96
2022/01/17 06:46:59;;;;;;;15.47;2.70;;;5.70;99.90;;;;;;4973320;28;20192;-95
2022/01/17 06:49:25;;;;;;;11.97;2.53;;;5.60;99.90;;;;;;4975397;28;20188;-96
2022/01/17 06:51:50;;;;;;;11.80;2.27;;;5.60;99.90;;;;;;4977159;28;20184;-95
2022/01/17 06:54:16;;;;;;;19.83;3.10;;;5.60;99.90;;;;;;4976613;28;20192;-95
2022/01/17 06:56:44;;;;;;;15.40;2.63;;;5.60;99.90;;;;;;4975746;28;20185;-96
2022/01/17 06:59:12;;;;;;;14.13;2.03;;;5.70;99.90;;;;;;4975921;28;20184;-95
2022/01/17 07:01:38;;;;;;;15.33;2.37;;;5.60;99.90;;;;;;4968199;28;20244;-95
2022/01/17 07:04:05;;;;;;;18.30;2.70;;;5.60;99.90;;;;;;4956437;28;20614;-95
2022/01/17 07:06:31;;;;;;;14.30;2.43;;;5.60;99.90;;;;;;4956630;28;20271;-95
2022/01/17 07:08:57;;;;;;;10.40;1.80;;;5.70;99.90;;;;;;4956763;28;20625;-95
2022/01/17 07:11:23;;;;;;;12.63;2.33;;;5.70;99.90;;;;;;4956215;28;20185;-95
2022/01/17 07:13:48;;;;;;;11.60;1.87;;;5.60;99.90;;;;;;4956334;28;20224;-95
2022/01/17 07:16:14;;;;;;;13.87;2.13;;;5.60;99.90;;;;;;4957033;28;20614;-96
2022/01/17 07:18:40;;;;;;;9.60;2.00;;;5.70;99.90;;;;;;4955852;28;20185;-94
2022/01/17 07:21:06;;;;;;;11.17;1.87;;;5.70;99.90;;;;;;4957176;28;20185;-95
2022/01/17 07:23:32;;;;;;;13.43;2.03;;;5.60;99.90;;;;;;4956860;28;20219;-93
2022/01/17 07:25:58;;;;;;;11.00;2.20;;;5.60;99.90;;;;;;4956059;28;20181;-95
2022/01/17 07:28:24;;;;;;;11.83;2.00;;;5.60;99.90;;;;;;4956550;28;20185;-95
2022/01/17 07:30:50;;;;;;;10.57;1.77;;;5.60;99.90;;;;;;4956078;28;20173;-96
2022/01/17 07:33:17;;;;;;;9.17;1.73;;;5.50;99.90;;;;;;4956545;28;20169;-96
2022/01/17 07:35:45;;;;;;;11.63;2.00;;;5.60;99.90;;;;;;4956348;28;20188;-94
2022/01/17 07:38:11;;;;;;;10.47;2.10;;;5.50;99.90;;;;;;4956424;28;20703;-96
2022/01/17 07:40:37;;;;;;;11.10;2.10;;;5.50;99.90;;;;;;4956507;28;20189;-94
2022/01/17 07:43:03;;;;;;;9.23;1.70;;;5.60;99.90;;;;;;4956853;28;20211;-96
2022/01/17 07:45:30;;;;;;;11.50;1.67;;;5.60;99.90;;;;;;4956004;28;20641;-95
2022/01/17 07:48:11;;;;;;;13.07;1.60;;;5.70;99.90;;;;;;4956627;28;20272;-95
2022/01/17 07:50:37;;;;;;;8.60;2.03;;;5.60;99.90;;;;;;4956432;28;20526;-94
2022/01/17 07:53:03;;;;;;;21.07;2.67;;;5.60;99.90;;;;;;4955823;28;20174;-94
2022/01/17 07:55:29;;;;;;;11.20;1.60;;;5.70;99.90;;;;;;4956294;28;20193;-96
2022/01/17 07:57:55;;;;;;;9.93;2.20;;;5.70;99.90;;;;;;4956107;29;20243;-95
2022/01/17 08:00:22;;;;;;;8.47;1.70;;;5.60;99.90;;;;;;4956275;28;20182;-95
2022/01/17 08:02:49;;;;;;;9.60;2.03;;;5.60;99.90;;;;;;4956010;28;20333;-94
2022/01/17 08:05:15;;;;;;;10.43;2.30;;;5.60;99.90;;;;;;4955835;28;20216;-95
2022/01/17 08:07:45;;;;;;;8.40;1.70;;;5.50;99.90;;;;;;4955770;28;20248;-95
2022/01/17 08:10:14;;;;;;;9.97;1.87;;;5.50;99.90;;;;;;4955440;28;20245;-95
2022/01/17 08:12:46;;;;;;;10.63;2.10;;;5.60;99.90;;;;;;4952709;28;20186;-94
2022/01/17 08:15:13;;;;;;;8.43;2.40;;;5.70;99.90;;;;;;4952990;28;20186;-95
2022/01/17 08:17:39;;;;;;;14.33;2.27;;;5.60;99.90;;;;;;4936690;29;20273;-96
2022/01/17 08:20:06;;;;;;;9.13;1.80;;;5.60;99.90;;;;;;4952629;28;20217;-95
2022/01/17 08:22:32;;;;;;;10.83;1.93;;;5.60;99.90;;;;;;4953227;28;20214;-96
2022/01/17 08:24:58;;;;;;;14.27;2.07;;;5.60;99.90;;;;;;4952880;28;20184;-95
2022/01/17 08:27:24;;;;;;;15.83;2.87;;;5.60;99.90;;;;;;4952541;28;20185;-95
2022/01/17 08:29:49;;;;;;;7.07;1.53;;;5.70;99.90;;;;;;4953173;28;20193;-94
2022/01/17 08:32:15;;;;;;;5.57;1.63;;;5.80;99.90;;;;;;4958564;28;20612;-95
2022/01/17 08:34:41;;;;;;;11.50;2.33;;;5.70;99.90;;;;;;4959783;28;20612;-96
2022/01/17 08:37:06;;;;;;;8.30;1.80;;;5.70;99.90;;;;;;4959242;28;20181;-95
2022/01/17 08:39:32;;;;;;;10.93;2.00;;;5.70;99.90;;;;;;4958730;28;20184;-95
2022/01/17 08:41:58;;;;;;;6.87;1.83;;;5.80;99.90;;;;;;4959635;28;20226;-95
2022/01/17 08:44:25;;;;;;;11.90;1.70;;;5.70;99.90;;;;;;4959463;28;20220;-95
2022/01/17 08:46:51;;;;;;;9.60;2.47;;;5.70;99.90;;;;;;4958781;28;20221;-94
2022/01/17 08:49:17;;;;;;;12.03;2.43;;;5.70;99.90;;;;;;4959280;28;20188;-95
2022/01/17 08:51:43;;;;;;;6.57;1.50;;;5.70;99.90;;;;;;4958963;28;20178;-94
2022/01/17 08:54:09;;;;;;;12.00;1.80;;;5.60;99.90;;;;;;4958849;28;20216;-94
2022/01/17 08:56:34;;;;;;;9.93;1.83;;;5.60;99.90;;;;;;4959229;28;20185;-95
2022/01/17 08:59:02;;;;;;;6.90;1.97;;;5.70;99.90;;;;;;4958511;28;20186;-95
2022/01/17 09:01:28;;;;;;;11.17;1.90;;;5.70;99.90;;;;;;4958879;28;20271;-96
2022/01/17 09:03:54;;;;;;;11.37;2.00;;;5.80;99.90;;;;;;4945870;29;20286;-94
2022/01/17 09:06:23;;;;;;;9.10;2.03;;;5.80;99.90;;;;;;4951969;29;20226;-94
2022/01/17 09:08:48;;;;;;;12.27;2.27;;;5.80;99.90;;;;;;4959232;29;20185;-95
2022/01/17 09:11:14;;;;;;;7.87;1.60;;;5.70;99.90;;;;;;4958825;28;20189;-94
2022/01/17 09:13:40;;;;;;;8.73;2.20;;;5.70;99.90;;;;;;4958827;28;20264;-94
2022/01/17 09:16:06;;;;;;;9.87;2.00;;;5.70;99.90;;;;;;4958841;28;20245;-94
2022/01/17 09:18:31;;;;;;;6.97;1.80;;;5.70;99.90;;;;;;4958304;28;20264;-95
2022/01/17 09:20:57;;;;;;;12.17;1.80;;;5.80;99.90;;;;;;4959058;28;20268;-95
2022/01/17 09:23:23;;;;;;;5.53;1.60;;;5.80;99.90;;;;;;4958336;28;20541;-95
2022/01/17 09:25:49;;;;;;;7.50;1.63;;;5.90;99.90;;;;;;4958326;28;20185;-94
2022/01/17 09:28:15;;;;;;;10.20;2.00;;;5.90;99.90;;;;;;4959039;28;20191;-94
2022/01/17 09:30:41;;;;;;;8.43;2.30;;;6.00;99.90;;;;;;4958456;28;20181;-94
2022/01/17 09:33:07;;;;;;;6.60;1.93;;;6.00;99.90;;;;;;4958526;28;20292;-94
2022/01/17 09:35:34;;;;;;;9.57;2.17;;;6.10;99.90;;;;;;4958589;28;20637;-96
2022/01/17 09:38:00;;;;;;;11.00;2.13;;;6.00;99.90;;;;;;4957985;28;20569;-94
2022/01/17 09:40:26;;;;;;;9.80;2.10;;;6.10;99.90;;;;;;4958049;28;20244;-94
2022/01/17 09:42:53;;;;;;;9.20;1.60;;;6.10;99.90;;;;;;4957926;28;20217;-95
2022/01/17 09:45:21;;;;;;;8.40;1.93;;;6.10;99.90;;;;;;4957692;28;20381;-95
2022/01/17 09:47:47;;;;;;;7.40;1.93;;;6.10;99.90;;;;;;4957641;29;20280;-96
2022/01/17 09:50:21;;;;;;;8.17;2.30;;;6.10;99.90;;;;;;4958456;28;20635;-95
2022/01/17 09:52:53;;;;;;;12.30;2.63;;;6.20;99.90;;;;;;4957538;28;20181;-95
2022/01/17 09:55:22;;;;;;;12.30;2.17;;;6.10;99.90;;;;;;4957969;28;20192;-96
2022/01/17 09:57:52;;;;;;;9.77;2.53;;;6.10;99.90;;;;;;4957902;28;20547;-94
2022/01/17 10:00:24;;;;;;;8.70;1.97;;;6.20;99.90;;;;;;4957610;28;20276;-94
2022/01/17 10:02:51;;;;;;;9.77;2.50;;;6.20;99.90;;;;;;4939457;28;20221;-95
2022/01/17 10:05:17;;;;;;;9.13;2.33;;;6.20;99.90;;;;;;4938892;29;20213;-95
2022/01/17 10:08:00;;;;;;;7.70;2.03;;;6.20;99.90;;;;;;4938491;29;20182;-95
2022/01/17 10:10:42;;;;;;;10.77;2.90;;;6.20;99.90;;;;;;4938623;29;20174;-95
2022/01/17 10:13:27;;;;;;;9.63;2.77;;;6.20;99.90;;;;;;4954618;28;20245;-96
2022/01/17 10:16:06;;;;;;;6.67;1.97;;;6.30;99.90;;;;;;4938091;29;20633;-95
2022/01/17 10:19:00;;;;;;;9.27;1.87;;;6.30;99.90;;;;;;4953753;28;20178;-95
2022/01/17 10:21:32;;;;;;;9.70;2.17;;;6.20;99.90;;;;;;4938520;29;20174;-96
2022/01/17 10:26:57;;;;;;;9.50;2.37;;;6.30;99.90;;;;;;4938806;29;20158;-95
2022/01/17 10:37:15;;;;;;;8.23;2.27;;;6.60;99.90;;;;;;4958412;29;20603;-95
2022/01/17 10:40:00;;;;;;;6.73;2.10;;;6.60;99.90;;;;;;4956903;28;20184;-94
2022/01/17 10:42:41;;;;;;;10.60;2.67;;;6.50;99.90;;;;;;4956813;28;20205;-95
2022/01/17 10:45:13;;;;;;;11.47;2.87;;;6.60;99.90;;;;;;4956440;28;20667;-96
2022/01/17 10:47:43;;;;;;;8.63;3.13;;;6.60;99.90;;;;;;4957577;28;20189;-94
2022/01/17 10:50:24;;;;;;;8.63;2.43;;;6.60;99.90;;;;;;4956558;28;20181;-95
2022/01/17 10:52:55;;;;;;;12.03;2.57;;;6.60;99.90;;;;;;4956122;28;20527;-96
2022/01/17 10:55:28;;;;;;;10.87;2.63;;;6.70;99.90;;;;;;4956965;28;20276;-95
2022/01/17 10:58:02;;;;;;;9.50;2.90;;;6.70;99.90;;;;;;4956948;28;20181;-94
2022/01/17 11:00:30;;;;;;;9.73;2.67;;;6.70;99.90;;;;;;4957092;28;20183;-95
2022/01/17 11:03:08;;;;;;;10.80;2.40;;;6.70;99.90;;;;;;4957026;28;20215;-94
2022/01/17 11:05:42;;;;;;;9.17;2.50;;;6.70;99.90;;;;;;4957422;28;20191;-96
2022/01/17 11:08:08;;;;;;;9.23;2.50;;;6.70;99.90;;;;;;4956402;28;20181;-95
2022/01/17 11:10:55;;;;;;;8.10;2.57;;;6.70;99.90;;;;;;4956764;28;20236;-95
2022/01/17 11:13:29;;;;;;;12.83;3.17;;;6.70;99.90;;;;;;4957569;28;20608;-95
2022/01/17 11:15:57;;;;;;;13.40;2.87;;;6.70;99.90;;;;;;4956709;28;20177;-95
2022/01/17 11:18:27;;;;;;;9.73;3.20;;;6.80;99.90;;;;;;4956370;28;20232;-95
2022/01/17 11:21:10;;;;;;;12.77;3.23;;;6.80;99.90;;;;;;4956487;28;20264;-95
2022/01/17 11:23:37;;;;;;;11.27;3.63;;;6.80;99.90;;;;;;4956131;28;20220;-95
2022/01/17 11:26:05;;;;;;;14.13;3.13;;;6.90;99.90;;;;;;4956161;28;20228;-95
2022/01/17 11:28:34;;;;;;;11.20;2.80;;;6.80;99.90;;;;;;4956276;28;20244;-95
2022/01/17 11:31:02;;;;;;;12.03;3.20;;;6.90;99.90;;;;;;4956104;28;20650;-95
2022/01/17 11:33:28;;;;;;;12.60;3.67;;;6.90;99.90;;;;;;4956354;29;20624;-94
2022/01/17 11:35:55;;;;;;;16.07;4.00;;;6.90;99.90;;;;;;4956454;28;20173;-94
2022/01/17 11:38:27;;;;;;;20.27;4.10;;;6.90;99.90;;;;;;4956164;28;20185;-95
2022/01/17 11:40:53;;;;;;;11.30;3.50;;;6.90;99.90;;;;;;4957178;28;20173;-95
2022/01/17 11:43:32;;;;;;;17.33;4.30;;;7.00;99.90;;;;;;4956523;28;20211;-94
2022/01/17 11:45:59;;;;;;;17.50;3.70;;;7.00;99.90;;;;;;4955958;28;20331;-94
2022/01/17 11:48:30;;;;;;;21.10;4.23;;;7.00;99.90;;;;;;4956281;28;20632;-94
2022/01/17 11:51:10;;;;;;;22.57;4.37;;;7.00;99.90;;;;;;4956005;28;20173;-94
2022/01/17 11:53:38;;;;;;;17.10;3.50;;;7.00;99.90;;;;;;4956194;28;20260;-95
2022/01/17 11:56:04;;;;;;;16.20;3.70;;;7.10;99.90;;;;;;4956838;28;20201;-96
2022/01/17 11:58:39;;;;;;;17.77;4.00;;;7.10;99.90;;;;;;4955983;28;20181;-95
2022/01/17 12:01:05;;;;;;;27.57;4.70;;;7.20;99.90;;;;;;4956002;28;20280;-94
2022/01/17 12:03:48;;;;;;;18.90;3.67;;;7.20;99.90;;;;;;4956095;29;20311;-93
2022/01/17 12:06:36;;;;;;;17.67;3.80;;;7.20;99.90;;;;;;4959177;28;20173;-93
2022/01/17 12:09:23;;;;;;;15.07;2.97;;;7.20;99.90;;;;;;4959964;28;20185;-94
2022/01/17 12:12:11;;;;;;;10.90;1.97;;;7.20;99.90;;;;;;4960132;28;20192;-93
2022/01/17 12:14:41;;;;;;;15.20;3.10;;;7.20;99.90;;;;;;4960245;28;20177;-93
2022/01/17 12:17:26;;;;;;;14.60;2.63;;;7.30;99.90;;;;;;4959395;28;20207;-93
2022/01/17 12:20:04;;;;;;;12.70;2.33;;;7.20;99.90;;;;;;4958943;29;20553;-92
2022/01/17 12:22:36;;;;;;;12.70;2.03;;;7.10;99.90;;;;;;4959213;29;20308;-91
2022/01/17 12:25:24;;;;;;;5.60;1.50;;;6.90;99.90;;;;;;4959514;29;20178;-92
2022/01/17 12:27:51;;;;;;;9.73;1.73;;;6.80;99.90;;;;;;4958902;29;20192;-92
2022/01/17 12:30:17;;;;;;;9.00;1.83;;;6.80;99.90;;;;;;4958931;28;20643;-93
2022/01/17 12:32:48;;;;;;;16.33;2.97;;;6.80;99.90;;;;;;4959226;28;20216;-92
2022/01/17 12:35:21;;;;;;;10.17;2.03;;;6.90;99.90;;;;;;4958523;28;20231;-92
2022/01/17 12:38:03;;;;;;;6.87;1.80;;;6.90;99.90;;;;;;4958735;28;20177;-93
2022/01/17 12:40:40;;;;;;;7.90;1.80;;;6.80;99.90;;;;;;4959277;28;20200;-95
2022/01/17 12:43:07;;;;;;;13.57;2.70;;;6.80;99.90;;;;;;4958543;28;20212;-94
2022/01/17 12:45:43;;;;;;;13.80;2.87;;;6.70;99.90;;;;;;4958443;29;20244;-93
2022/01/17 12:48:15;;;;;;;13.97;2.57;;;6.70;99.90;;;;;;4958534;28;20778;-94
2022/01/17 12:50:42;;;;;;;12.83;2.53;;;6.60;99.90;;;;;;4959285;28;20204;-96
2022/01/17 12:53:10;;;;;;;14.27;2.43;;;6.60;99.90;;;;;;4958789;28;20185;-95
2022/01/17 12:55:46;;;;;;;9.20;2.07;;;6.60;99.90;;;;;;4958826;28;20189;-94
2022/01/17 12:58:33;;;;;;;16.30;2.60;;;6.70;99.90;;;;;;4954341;29;20181;-94
2022/01/17 13:01:12;;;;;;;11.93;2.17;;;6.80;99.90;;;;;;4955652;28;20198;-92
2022/01/17 13:03:41;;;;;;;13.83;2.87;;;6.80;99.90;;;;;;4939010;29;20601;-95
2022/01/17 13:06:09;;;;;;;14.00;2.23;;;6.80;99.90;;;;;;4939556;29;20493;-94
2022/01/17 13:08:39;;;;;;;13.70;2.13;;;6.80;99.90;;;;;;4939684;29;20178;-95
2022/01/17 13:11:37;;;;;;;10.73;1.90;;;6.80;99.90;;;;;;4939848;29;20181;-94
2022/01/17 13:14:02;;;;;;;10.17;2.27;;;6.90;99.90;;;;;;4938950;29;20198;-93
2022/01/17 13:16:36;;;;;;;18.00;2.90;;;7.00;99.90;;;;;;4938397;29;20177;-93
2022/01/17 13:19:04;;;;;;;11.83;2.57;;;7.10;99.90;;;;;;4939051;29;20260;-93
2022/01/17 13:21:31;;;;;;;17.27;2.87;;;7.10;99.90;;;;;;4938946;29;20182;-94
2022/01/17 13:24:20;;;;;;;13.97;2.73;;;7.20;99.90;;;;;;4939575;29;20214;-94
2022/01/17 13:26:50;;;;;;;13.63;2.87;;;7.20;99.90;;;;;;4939351;29;20186;-94
2022/01/17 13:29:16;;;;;;;15.10;2.47;;;7.30;99.90;;;;;;4939242;29;20174;-93
2022/01/17 13:31:43;;;;;;;15.63;3.00;;;7.40;99.90;;;;;;4948018;29;20205;-94
2022/01/17 13:34:21;;;;;;;13.37;2.93;;;7.50;99.90;;;;;;4957791;28;20190;-93